Overview Statistics Trail Chart Weather Telemetry Raw packets
 

This is the latest recevied weather packets stored in our database for station/object W5MAI. If no packets are shown the sender has not sent any weather packets the latest 10 day(s).

<< 9 10 11 12 13 14 15 >>
Time Temp. Humidity Pressure Rain* Wind** Luminosity Snow
1788487456 30° C 63% 1013.8 hPa 0 mm - 0 W/m² -
1788486216 30° C 64% 1013.4 hPa 0 mm - 0 W/m² -
1788485624 30° C 65% 1013.2 hPa 0 mm - 0 W/m² -
1788485055 30° C 65% 1013.2 hPa 0 mm - 0 W/m² -
1788484414 30.56° C 65% 1012.9 hPa 0 mm - 0 W/m² -
1788483844 30.56° C 64% 1012.9 hPa 0 mm - 0 W/m² -
1788483205 30.56° C 63% 1012.9 hPa 0 mm - 0 W/m² -
1788482641 31.11° C 62% 1012.7 hPa 0 mm - 7 W/m² -
1788482005 31.67° C 59% 1012.7 hPa 0 mm - 28 W/m² -
1788478425 34.44° C 47% 1012.1 hPa 0 mm - 62 W/m² -
1788477832 34.44° C 46% 1012.1 hPa 0 mm - 86 W/m² -
1788477262 34.44° C 46% 1012 hPa 0 mm - 120 W/m² -
1788476616 34.44° C 48% 1011.9 hPa 0 mm - 144 W/m² -
1788476010 34.44° C 49% 1011.9 hPa 0 mm - 297 W/m² -
1788475445 35° C 48% 1011.8 hPa 0 mm - 144 W/m² -
1788474815 34.44° C 49% 1011.8 hPa 0 mm - 149 W/m² -
1788474235 36.11° C 45% 1011.9 hPa 0 mm - 125 W/m² -
1788473661 36.67° C 42% 1011.6 hPa 0 mm - 580 W/m² -
1788472427 37.22° C 41% 1011.7 hPa 0 mm - 708 W/m² -
1788471848 37.22° C 41% 1011.7 hPa 0 mm - 710 W/m² -
1788471217 37.22° C 41% 1011.9 hPa 0 mm - 673 W/m² -
1788470643 36.11° C 43% 1012 hPa 0 mm - 701 W/m² -
1788470008 35.56° C 44% 1012.1 hPa 0 mm - 751 W/m² -
1788469449 35.56° C 45% 1012.3 hPa 0 mm - 200 W/m² -
1788468823 36.11° C 46% 1012.5 hPa 0 mm - 190 W/m² -

* Rain latest hour (hover to see other rain measurements)
** Current wind speed in m/s (hover to see current wind gust speed)